Time;durP1;ratioP1;P1;durP2;ratioP2;P2;SDS_P1;SDS_P2;PMS_P1;PMS_P2;Temp;Humidity;BMP_temperature;BMP_pressure;BME280_temperature;BME280_humidity;BME280_pressure;Samples;Min_cycle;Max_cycle;Signal;HPM_P1;HPM_P2
2023/06/25 00:01:21;;;;;;;;;;;;;;;19.33;81.77;100057.75;4495807;31;33224;-82
2023/06/25 00:03:49;;;;;;;;;;;;;;;19.35;81.74;100056.91;4485104;32;34271;-82
2023/06/25 00:06:19;;;;;;;;;;;;;;;19.34;81.74;100052.53;4488906;31;33819;-82
2023/06/25 00:08:47;;;;;;;;;;;;;;;19.08;82.95;100046.91;4494547;31;35458;-82
2023/06/25 00:11:14;;;;;;;;;;;;;;;19.18;82.96;100046.19;4487703;31;33312;-82
2023/06/25 00:13:42;;;;;;;;;;;;;;;19.11;83.27;100046.09;4484985;31;33765;-82
2023/06/25 00:16:10;;;;;;;;;;;;;;;19.41;81.99;100051.75;4486377;31;33600;-82
2023/06/25 00:18:38;;;;;;;;;;;;;;;19.65;80.85;100050.28;4484649;31;35415;-83
2023/06/25 00:21:05;;;;;;;;;;;;;;;19.62;80.87;100055.50;4497252;31;33466;-82
2023/06/25 00:23:33;;;;;;;;;;;;;;;20.44;77.31;100057.25;4472523;31;34125;-82
2023/06/25 00:26:00;;;;;;;;;;;;;;;21.28;73.08;100071.91;4489336;31;33882;-82
2023/06/25 00:28:28;;;;;;;;;;;;;;;21.53;71.73;100073.84;4490349;31;34693;-82
2023/06/25 00:30:56;;;;;;;;;;;;;;;21.02;74.13;100078.78;4494613;31;31497;-82
2023/06/25 00:33:24;;;;;;;;;;;;;;;20.86;75.21;100082.22;4487385;31;34147;-82
2023/06/25 00:35:51;;;;;;;;;;;;;;;20.81;75.89;100084.78;4483605;32;34992;-82
2023/06/25 00:38:18;;;;;;;;;;;;;;;20.78;76.33;100082.16;4492858;31;34307;-82
2023/06/25 00:40:46;;;;;;;;;;;;;;;20.94;75.83;100077.87;4485159;31;33245;-82
2023/06/25 00:43:16;;;;;;;;;;;;;;;19.56;82.80;100079.06;4484797;31;34347;-82
2023/06/25 00:45:44;;;;;;;;;;;;;;;19.31;84.93;100081.34;4485130;32;34281;-82
2023/06/25 00:48:12;;;;;;;;;;;;;;;19.25;86.03;100089.16;4492825;31;33756;-82
2023/06/25 00:50:39;;;;;;;;;;;;;;;19.50;84.63;100084.25;4474993;31;33552;-82
2023/06/25 00:53:08;;;;;;;;;;;;;;;19.28;85.40;100078.72;4486212;31;33940;-82
2023/06/25 00:55:36;;;;;;;;;;;;;;;19.24;86.17;100095.28;4473364;31;34012;-82
2023/06/25 00:58:04;;;;;;;;;;;;;;;19.18;86.56;100090.84;4461349;32;34155;-82
2023/06/25 01:00:33;;;;;;;;;;;;;;;19.21;86.46;100089.97;4490277;31;33724;-82
2023/06/25 01:03:12;;;;;;;;;;;;;;;19.27;86.41;100089.19;4495356;31;34760;-82
2023/06/25 01:05:46;;;;;;;;;;;;;;;19.51;84.84;100091.25;4488229;31;33788;-82
2023/06/25 01:08:14;;;;;;;;;;;;;;;19.72;83.96;100088.03;4492477;31;33905;-82
2023/06/25 01:10:41;;;;;;;;;;;;;;;19.82;83.29;100082.94;4492125;31;33002;-82
2023/06/25 01:13:08;;;;;;;;;;;;;;;20.09;81.58;100073.59;4470580;32;34913;-82
2023/06/25 01:15:36;;;;;;;;;;;;;;;20.02;81.67;100066.50;4495864;31;33960;-83
2023/06/25 01:18:04;;;;;;;;;;;;;;;20.18;81.22;100068.41;4484578;31;34182;-82
2023/06/25 01:20:31;;;;;;;;;;;;;;;20.02;81.88;100070.00;4477386;32;33362;-82
2023/06/25 01:22:59;;;;;;;;;;;;;;;19.94;82.42;100065.53;4484559;31;34927;-82
2023/06/25 01:25:26;;;;;;;;;;;;;;;20.13;81.60;100056.97;4470048;32;34043;-82
2023/06/25 01:27:54;;;;;;;;;;;;;;;20.88;78.38;100055.88;4473747;32;34132;-82
2023/06/25 01:30:25;;;;;;;;;;;;;;;21.70;73.99;100044.03;4490915;31;33315;-82
2023/06/25 01:32:52;;;;;;;;;;;;;;;22.02;72.34;100048.50;4488615;31;34295;-82
2023/06/25 01:35:20;;;;;;;;;;;;;;;22.06;72.09;100053.81;4485369;31;34163;-82
2023/06/25 01:37:47;;;;;;;;;;;;;;;21.91;72.53;100040.59;4485400;32;34028;-82
2023/06/25 01:40:16;;;;;;;;;;;;;;;21.35;74.89;100042.97;4486561;31;33214;-82
2023/06/25 01:42:43;;;;;;;;;;;;;;;21.54;74.07;100043.09;4487037;31;33913;-82
2023/06/25 01:45:13;;;;;;;;;;;;;;;22.09;71.93;100048.53;4497403;31;33932;-82
2023/06/25 01:47:41;;;;;;;;;;;;;;;22.35;70.64;100051.25;4486599;31;34070;-82
2023/06/25 01:50:09;;;;;;;;;;;;;;;22.41;70.10;100045.09;4487235;31;33054;-82
2023/06/25 01:52:37;;;;;;;;;;;;;;;21.80;72.27;100044.06;4460872;31;788317;-82
2023/06/25 01:55:05;;;;;;;;;;;;;;;21.68;72.90;100041.38;4486155;31;33600;-82
2023/06/25 01:57:32;;;;;;;;;;;;;;;21.31;74.53;100041.22;4494319;31;33716;-81
2023/06/25 02:00:00;;;;;;;;;;;;;;;21.15;75.76;100044.63;4490402;31;33311;-82
2023/06/25 02:02:28;;;;;;;;;;;;;;;20.60;78.18;100045.13;4486014;31;34273;-82
2023/06/25 02:04:56;;;;;;;;;;;;;;;20.36;78.92;100048.44;4500533;31;33777;-83
2023/06/25 02:07:23;;;;;;;;;;;;;;;20.74;77.65;100047.88;4476983;31;34883;-82
2023/06/25 02:09:51;;;;;;;;;;;;;;;19.79;82.51;100048.72;4486466;31;34041;-82
2023/06/25 02:12:18;;;;;;;;;;;;;;;19.70;83.94;100043.34;4487388;31;33824;-83
2023/06/25 02:14:46;;;;;;;;;;;;;;;19.29;86.80;100051.56;4486079;31;33909;-82
2023/06/25 02:17:13;;;;;;;;;;;;;;;19.52;86.03;100053.63;4485782;31;34485;-82
2023/06/25 02:19:41;;;;;;;;;;;;;;;19.53;85.84;100050.13;4485664;31;33705;-82
2023/06/25 02:22:08;;;;;;;;;;;;;;;19.44;86.67;100057.03;4486088;31;34913;-83
2023/06/25 02:24:35;;;;;;;;;;;;;;;19.60;85.61;100051.97;4493494;31;33847;-82
2023/06/25 02:27:03;;;;;;;;;;;;;;;19.61;86.21;100054.63;4488362;31;34022;-82
2023/06/25 02:29:30;;;;;;;;;;;;;;;19.33;88.04;100061.25;4487453;31;34557;-82
2023/06/25 02:31:57;;;;;;;;;;;;;;;19.65;86.49;100056.41;4497329;31;35508;-82
2023/06/25 02:34:25;;;;;;;;;;;;;;;20.48;82.00;100061.69;4492939;31;34642;-82
2023/06/25 02:36:52;;;;;;;;;;;;;;;19.95;84.58;100057.69;4498528;31;34779;-82
2023/06/25 02:39:19;;;;;;;;;;;;;;;19.60;86.40;100057.22;4474483;32;34096;-82
2023/06/25 02:41:47;;;;;;;;;;;;;;;19.53;86.86;100060.63;4462707;31;33398;-82
2023/06/25 02:44:14;;;;;;;;;;;;;;;19.64;86.41;100059.00;4485516;31;34147;-82
2023/06/25 02:46:42;;;;;;;;;;;;;;;19.64;86.75;100053.75;4489064;31;33470;-83
2023/06/25 02:49:09;;;;;;;;;;;;;;;19.75;86.08;100062.69;4493528;31;34108;-82
2023/06/25 02:51:37;;;;;;;;;;;;;;;19.64;86.80;100053.75;4488755;31;33621;-82
2023/06/25 02:54:04;;;;;;;;;;;;;;;19.94;85.36;100062.91;4498808;31;34139;-83
2023/06/25 02:56:31;;;;;;;;;;;;;;;19.84;85.86;100060.19;4493856;31;33669;-83
2023/06/25 02:58:59;;;;;;;;;;;;;;;19.97;85.26;100058.56;4492977;31;33534;-83
2023/06/25 03:01:26;;;;;;;;;;;;;;;20.14;84.46;100061.34;4493608;31;33623;-83
2023/06/25 03:03:54;;;;;;;;;;;;;;;19.80;86.43;100060.13;4489084;31;34069;-83
2023/06/25 03:06:21;;;;;;;;;;;;;;;19.73;86.83;100058.28;4497471;31;34238;-83
2023/06/25 03:08:48;;;;;;;;;;;;;;;19.63;87.43;100057.28;4478131;32;32832;-83
2023/06/25 03:11:16;;;;;;;;;;;;;;;19.73;87.39;100059.16;4485776;31;34689;-83
2023/06/25 03:13:43;;;;;;;;;;;;;;;20.12;85.18;100063.09;4498757;31;34143;-83
2023/06/25 03:16:11;;;;;;;;;;;;;;;20.20;84.85;100066.69;4488744;31;34168;-83
2023/06/25 03:18:38;;;;;;;;;;;;;;;20.36;84.20;100065.09;4493975;31;33481;-83
2023/06/25 03:21:05;;;;;;;;;;;;;;;20.76;82.32;100067.19;4483146;31;33815;-83
2023/06/25 03:23:33;;;;;;;;;;;;;;;21.00;80.92;100072.62;4486930;31;33975;-83
2023/06/25 03:26:01;;;;;;;;;;;;;;;20.96;81.12;100064.72;4497119;31;33871;-83
2023/06/25 03:28:28;;;;;;;;;;;;;;;20.33;84.32;100064.16;4485790;32;33397;-83
2023/06/25 03:30:56;;;;;;;;;;;;;;;20.10;86.33;100064.81;4485493;31;34151;-83
2023/06/25 03:33:24;;;;;;;;;;;;;;;20.18;86.42;100068.41;4484300;31;34241;-83
2023/06/25 03:35:51;;;;;;;;;;;;;;;21.06;82.44;100070.94;4494681;31;33873;-83
2023/06/25 03:38:18;;;;;;;;;;;;;;;21.66;78.93;100063.34;4475423;32;31506;-83
2023/06/25 03:40:46;;;;;;;;;;;;;;;21.93;77.71;100062.56;4485560;31;34600;-83
2023/06/25 03:43:13;;;;;;;;;;;;;;;22.15;75.88;100068.75;4497501;31;34350;-83
2023/06/25 03:45:41;;;;;;;;;;;;;;;21.98;76.77;100064.34;4486147;31;34435;-83
2023/06/25 03:48:08;;;;;;;;;;;;;;;22.22;75.75;100067.03;4490098;31;33312;-83
2023/06/25 03:50:36;;;;;;;;;;;;;;;22.39;75.29;100062.69;4488028;31;33919;-83
2023/06/25 03:53:03;;;;;;;;;;;;;;;22.80;73.37;100064.44;4480514;31;34121;-83
2023/06/25 03:55:32;;;;;;;;;;;;;;;22.79;73.28;100065.28;4488514;31;34003;-83
2023/06/25 03:57:59;;;;;;;;;;;;;;;22.65;73.64;100064.44;4488770;31;33447;-83
2023/06/25 04:00:27;;;;;;;;;;;;;;;22.47;74.40;100063.56;4490463;31;33756;-83
2023/06/25 04:02:54;;;;;;;;;;;;;;;22.78;73.32;100061.78;4482077;31;34585;-83
2023/06/25 04:05:21;;;;;;;;;;;;;;;23.10;71.83;100062.62;4487585;31;33880;-83
2023/06/25 04:07:49;;;;;;;;;;;;;;;23.23;71.42;100059.09;4483276;32;33377;-83
2023/06/25 04:10:17;;;;;;;;;;;;;;;22.52;73.85;100061.81;4485308;31;34002;-83
2023/06/25 04:12:44;;;;;;;;;;;;;;;21.14;80.89;100071.84;4494084;31;34094;-83
2023/06/25 04:15:11;;;;;;;;;;;;;;;20.62;83.87;100069.72;4488966;31;34099;-83
2023/06/25 04:17:40;;;;;;;;;;;;;;;21.72;79.19;100068.66;4485244;31;33685;-83
2023/06/25 04:20:08;;;;;;;;;;;;;;;21.39;79.99;100067.59;4475362;32;34223;-83
2023/06/25 04:22:35;;;;;;;;;;;;;;;20.66;83.85;100070.63;4471842;31;33895;-83
2023/06/25 04:25:03;;;;;;;;;;;;;;;20.56;85.06;100070.50;4492615;31;34929;-83
2023/06/25 04:27:31;;;;;;;;;;;;;;;21.35;81.42;100068.47;4496798;31;33290;-83
2023/06/25 04:29:58;;;;;;;;;;;;;;;21.73;78.98;100059.84;4487665;31;34902;-83
2023/06/25 04:32:26;;;;;;;;;;;;;;;22.19;77.02;100066.16;4488243;31;33744;-83
2023/06/25 04:34:53;;;;;;;;;;;;;;;22.06;76.79;100060.81;4487958;31;34200;-83
2023/06/25 04:37:20;;;;;;;;;;;;;;;21.58;79.50;100055.41;4471583;31;31625;-83
2023/06/25 04:39:48;;;;;;;;;;;;;;;21.28;81.17;100056.12;4492861;31;33945;-82
2023/06/25 04:42:16;;;;;;;;;;;;;;;22.07;77.80;100060.81;4494488;31;35426;-83
2023/06/25 04:44:43;;;;;;;;;;;;;;;21.51;79.43;100054.50;4484297;31;35227;-83
2023/06/25 04:47:11;;;;;;;;;;;;;;;21.18;81.84;100055.19;4485864;31;34440;-83
2023/06/25 04:49:38;;;;;;;;;;;;;;;21.26;81.87;100056.09;4486906;31;34340;-83
2023/06/25 04:52:05;;;;;;;;;;;;;;;20.81;84.00;100065.50;4479799;31;32425;-83
2023/06/25 04:54:33;;;;;;;;;;;;;;;21.33;81.64;100059.66;4484663;31;34312;-82
2023/06/25 04:57:00;;;;;;;;;;;;;;;21.08;82.66;100058.66;4485533;31;34021;-83
2023/06/25 04:59:27;;;;;;;;;;;;;;;21.39;81.53;100054.41;4489587;31;34828;-83
2023/06/25 05:01:57;;;;;;;;;;;;;;;21.61;80.50;100055.41;4484279;31;34269;-83
2023/06/25 05:04:25;;;;;;;;;;;;;;;21.92;79.20;100059.06;4484426;31;34667;-82
2023/06/25 05:06:52;;;;;;;;;;;;;;;21.66;79.51;100053.69;4491131;31;33180;-82
2023/06/25 05:09:20;;;;;;;;;;;;;;;21.34;81.63;100062.31;4478076;31;33141;-83
2023/06/25 05:11:47;;;;;;;;;;;;;;;21.21;82.16;100061.34;4467295;31;35622;-83
2023/06/25 05:14:14;;;;;;;;;;;;;;;21.38;81.25;100063.19;4490844;31;34157;-83
2023/06/25 05:16:41;;;;;;;;;;;;;;;21.13;82.26;100067.44;4490596;31;34159;-83
2023/06/25 05:19:09;;;;;;;;;;;;;;;21.61;80.08;100060.69;4461197;31;34994;-83
2023/06/25 05:21:36;;;;;;;;;;;;;;;21.37;80.44;100064.06;4487065;31;33925;-83
2023/06/25 05:24:04;;;;;;;;;;;;;;;21.38;80.81;100073.72;4492803;31;34018;-83
2023/06/25 05:26:31;;;;;;;;;;;;;;;21.82;79.08;100062.53;4494880;31;33337;-83
2023/06/25 05:28:59;;;;;;;;;;;;;;;22.16;77.51;100071.41;4494571;31;34100;-83
2023/06/25 05:31:26;;;;;;;;;;;;;;;22.52;76.37;100075.00;4485988;31;33594;-83
2023/06/25 05:33:54;;;;;;;;;;;;;;;22.03;78.48;100074.87;4490543;31;33996;-83
2023/06/25 05:36:21;;;;;;;;;;;;;;;21.48;80.97;100079.94;4464602;31;32074;-83
2023/06/25 05:38:49;;;;;;;;;;;;;;;22.35;77.19;100082.03;4487200;31;33299;-84
2023/06/25 05:41:18;;;;;;;;;;;;;;;22.60;75.54;100082.03;4488688;31;35066;-84
2023/06/25 05:43:46;;;;;;;;;;;;;;;22.77;74.31;100085.53;4492244;31;34072;-84
2023/06/25 05:46:13;;;;;;;;;;;;;;;22.74;74.10;100089.06;4488263;31;33413;-84
2023/06/25 05:48:41;;;;;;;;;;;;;;;23.28;72.58;100086.41;4471599;31;33974;-84
2023/06/25 05:51:08;;;;;;;;;;;;;;;23.82;70.51;100095.94;4487036;31;34827;-84
2023/06/25 05:53:39;;;;;;;;;;;;;;;23.88;70.44;100087.97;4488514;31;34846;-83
2023/06/25 05:56:07;;;;;;;;;;;;;;;23.60;70.05;100085.41;4486935;31;32930;-83
2023/06/25 05:58:34;;;;;;;;;;;;;;;23.24;68.75;100082.00;4489904;31;34848;-83
2023/06/25 06:01:05;;;;;;;;;;;;;;;24.31;65.16;100085.06;4484826;31;33564;-83
2023/06/25 06:03:32;;;;;;;;;;;;;;;24.18;65.58;100078.09;4486773;31;33728;-83
2023/06/25 06:06:00;;;;;;;;;;;;;;;23.90;66.91;100078.25;4489420;31;33523;-83
2023/06/25 06:08:27;;;;;;;;;;;;;;;23.36;68.00;100084.59;4492611;31;33710;-83
2023/06/25 06:10:55;;;;;;;;;;;;;;;24.01;66.60;100081.72;4491751;31;32684;-83
2023/06/25 06:13:23;;;;;;;;;;;;;;;24.60;63.91;100086.66;4489131;31;34843;-84
2023/06/25 06:15:50;;;;;;;;;;;;;;;23.70;66.65;100081.84;4476394;31;32858;-83
2023/06/25 06:18:18;;;;;;;;;;;;;;;24.26;64.60;100084.19;4494676;31;34107;-83
2023/06/25 06:20:45;;;;;;;;;;;;;;;24.32;63.58;100081.53;4487880;31;34953;-83
2023/06/25 06:23:12;;;;;;;;;;;;;;;24.25;64.78;100090.41;4491025;31;34464;-84
2023/06/25 06:25:40;;;;;;;;;;;;;;;24.00;66.14;100087.03;4488040;31;33924;-84
2023/06/25 06:28:07;;;;;;;;;;;;;;;24.33;64.96;100088.56;4473638;31;34792;-84
2023/06/25 06:30:34;;;;;;;;;;;;;;;24.04;66.08;100080.81;4493049;31;35067;-84
2023/06/25 06:33:02;;;;;;;;;;;;;;;24.04;66.49;100087.00;4491611;31;34551;-83
2023/06/25 06:35:29;;;;;;;;;;;;;;;24.33;65.65;100088.56;4493565;31;33497;-84
2023/06/25 06:37:56;;;;;;;;;;;;;;;24.19;66.40;100095.75;4492752;31;34217;-84
2023/06/25 06:40:24;;;;;;;;;;;;;;;24.08;67.29;100094.00;4473413;31;34975;-84
2023/06/25 06:42:51;;;;;;;;;;;;;;;24.10;66.65;100094.87;4486658;31;34859;-83
2023/06/25 06:45:19;;;;;;;;;;;;;;;24.24;65.62;100100.12;4486686;31;33007;-83
2023/06/25 06:47:46;;;;;;;;;;;;;;;24.04;65.17;100097.56;4488382;31;33205;-84
2023/06/25 06:50:13;;;;;;;;;;;;;;;23.84;64.84;100091.53;4493016;31;34988;-82
2023/06/25 06:52:45;;;;;;;;;;;;;;;24.05;63.56;100094.06;4477351;31;34831;-83
2023/06/25 06:55:13;;;;;;;;;;;;;;;24.20;62.76;100093.06;4486032;31;33059;-83
2023/06/25 06:57:40;;;;;;;;;;;;;;;24.17;62.80;100092.22;4486083;31;34244;-84
2023/06/25 07:00:09;;;;;;;;;;;;;;;24.40;61.58;100089.44;4494768;31;33897;-84
2023/06/25 07:02:36;;;;;;;;;;;;;;;24.90;60.58;100086.38;4494504;31;34141;-78
2023/06/25 07:05:04;;;;;;;;;;;;;;;24.29;62.47;100097.44;4490081;31;33361;-82
2023/06/25 07:07:31;;;;;;;;;;;;;;;24.43;62.73;100090.25;4496065;31;34941;-79
2023/06/25 07:09:59;;;;;;;;;;;;;;;24.46;62.25;100094.66;4498238;31;34713;-80
2023/06/25 07:12:26;;;;;;;;;;;;;;;24.81;60.82;100097.06;4494284;31;33769;-80
2023/06/25 07:14:53;;;;;;;;;;;;;;;24.27;62.00;100094.78;4472126;32;32982;-79
2023/06/25 07:17:21;;;;;;;;;;;;;;;24.71;60.40;100101.56;4486622;31;34721;-79
2023/06/25 07:19:48;;;;;;;;;;;;;;;24.45;61.28;100087.59;4485257;32;34400;-80
2023/06/25 07:22:15;;;;;;;;;;;;;;;24.74;60.18;100095.34;4495818;31;34487;-80
2023/06/25 07:24:43;;;;;;;;;;;;;;;25.06;59.29;100091.53;4474498;31;33448;-81
2023/06/25 07:27:10;;;;;;;;;;;;;;;25.08;58.93;100092.41;4477701;31;34427;-80
2023/06/25 07:29:37;;;;;;;;;;;;;;;24.92;57.99;100087.25;4485150;32;33973;-80
2023/06/25 07:32:05;;;;;;;;;;;;;;;25.27;57.62;100088.69;4484926;31;34106;-80
2023/06/25 07:34:35;;;;;;;;;;;;;;;25.04;59.15;100088.91;4493622;31;33405;-81
2023/06/25 07:37:03;;;;;;;;;;;;;;;24.36;61.15;100085.91;4489421;31;34029;-81
2023/06/25 07:39:31;;;;;;;;;;;;;;;24.47;59.51;100081.44;4489529;31;34151;-80
2023/06/25 07:42:00;;;;;;;;;;;;;;;24.82;59.48;100082.94;4489197;31;34167;-81
2023/06/25 07:44:27;;;;;;;;;;;;;;;25.19;59.32;100082.56;4474859;31;33047;-82
2023/06/25 07:46:58;;;;;;;;;;;;;;;25.28;60.58;100086.91;4493824;31;33972;-81
2023/06/25 07:49:25;;;;;;;;;;;;;;;25.50;59.28;100083.12;4488442;31;34045;-81
2023/06/25 07:51:53;;;;;;;;;;;;;;;24.99;59.74;100089.84;4488926;31;34386;-82
2023/06/25 07:54:21;;;;;;;;;;;;;;;25.50;58.88;100076.97;4477721;31;33072;-82
2023/06/25 07:56:48;;;;;;;;;;;;;;;25.44;58.81;100077.00;4485307;32;34765;-81
2023/06/25 07:59:15;;;;;;;;;;;;;;;25.31;59.51;100084.25;4484999;31;33719;-82
2023/06/25 08:01:44;;;;;;;;;;;;;;;25.69;58.18;100083.78;4481253;31;33809;-80
2023/06/25 08:04:12;;;;;;;;;;;;;;;24.39;61.37;100080.59;4484902;32;33724;-81
2023/06/25 08:06:40;;;;;;;;;;;;;;;24.07;63.23;100086.12;4485078;32;34878;-82
2023/06/25 08:09:07;;;;;;;;;;;;;;;23.67;65.29;100087.13;4485072;32;34811;-83
2023/06/25 08:11:35;;;;;;;;;;;;;;;24.20;64.47;100081.59;4485068;32;34843;-83
2023/06/25 08:14:02;;;;;;;;;;;;;;;24.68;63.17;100085.69;4487670;31;33925;-83
2023/06/25 08:16:30;;;;;;;;;;;;;;;24.39;62.00;100083.22;4484826;31;33523;-83
2023/06/25 08:18:57;;;;;;;;;;;;;;;24.50;61.05;100083.16;4487263;31;33935;-84
2023/06/25 08:21:24;;;;;;;;;;;;;;;25.49;57.35;100076.06;4485100;31;34594;-84
2023/06/25 08:23:55;;;;;;;;;;;;;;;26.05;55.63;100078.91;4491245;31;33048;-85
2023/06/25 08:26:23;;;;;;;;;;;;;;;26.54;55.00;100079.03;4491944;31;34009;-84
2023/06/25 08:28:50;;;;;;;;;;;;;;;26.19;54.13;100078.72;4473540;31;35104;-84
2023/06/25 08:31:18;;;;;;;;;;;;;;;25.84;56.15;100084.47;4492019;31;34908;-85
2023/06/25 08:33:45;;;;;;;;;;;;;;;25.78;56.17;100076.59;4490120;31;34020;-85
2023/06/25 08:36:13;;;;;;;;;;;;;;;26.27;55.99;100079.47;4485230;31;34151;-85
2023/06/25 08:38:40;;;;;;;;;;;;;;;25.98;56.26;100071.03;4474993;32;35278;-85
2023/06/25 08:41:07;;;;;;;;;;;;;;;26.57;52.88;100068.38;4487464;31;34604;-85
2023/06/25 08:43:35;;;;;;;;;;;;;;;24.33;58.48;100072.69;4471633;31;33296;-85
2023/06/25 08:46:02;;;;;;;;;;;;;;;24.51;58.57;100072.59;4486124;31;34050;-85
2023/06/25 08:48:30;;;;;;;;;;;;;;;25.56;56.38;100060.97;4491666;31;33908;-86
2023/06/25 08:51:00;;;;;;;;;;;;;;;25.86;55.38;100064.09;4485856;31;33917;-85
2023/06/25 08:53:28;;;;;;;;;;;;;;;25.98;54.63;100069.28;4468969;31;31482;-86
2023/06/25 08:55:56;;;;;;;;;;;;;;;26.40;54.42;100066.88;4485203;31;34124;-85
2023/06/25 08:58:24;;;;;;;;;;;;;;;26.26;56.04;100063.56;4479286;31;34709;-84
2023/06/25 09:00:51;;;;;;;;;;;;;;;26.21;54.78;100060.09;4482988;31;33569;-85
2023/06/25 09:03:19;;;;;;;;;;;;;;;26.68;53.91;100062.00;4499099;31;33441;-83
2023/06/25 09:05:55;;;;;;;;;;;;;;;26.86;52.16;100057.28;4486532;31;34105;-84
2023/06/25 09:08:24;;;;;;;;;;;;;;;26.70;52.15;100054.03;4485919;31;34054;-84
2023/06/25 09:10:51;;;;;;;;;;;;;;;27.05;51.41;100049.84;4484441;32;33972;-85
2023/06/25 09:13:23;;;;;;;;;;;;;;;26.70;50.90;100058.47;4487551;31;33958;-84
2023/06/25 09:15:50;;;;;;;;;;;;;;;26.28;52.69;100053.78;4492383;31;34072;-86
2023/06/25 09:18:24;;;;;;;;;;;;;;;26.72;52.63;100046.03;4483572;31;35036;-84
2023/06/25 09:20:53;;;;;;;;;;;;;;;26.85;52.49;100048.44;4491941;31;34945;-85
2023/06/25 09:23:23;;;;;;;;;;;;;;;26.90;51.20;100047.47;4483937;32;33620;-86
2023/06/25 09:25:50;;;;;;;;;;;;;;;26.86;50.65;100042.19;4473404;31;32941;-85
2023/06/25 09:28:18;;;;;;;;;;;;;;;27.41;50.51;100042.06;4494007;31;33924;-85
2023/06/25 09:30:46;;;;;;;;;;;;;;;27.43;50.38;100040.28;4489166;31;34879;-85
2023/06/25 09:33:14;;;;;;;;;;;;;;;26.97;49.76;100035.84;4479911;31;33873;-85
2023/06/25 09:35:41;;;;;;;;;;;;;;;25.14;54.45;100036.66;4477399;31;34071;-84
2023/06/25 09:38:09;;;;;;;;;;;;;;;25.48;54.39;100037.19;4485656;31;34059;-85
2023/06/25 09:40:36;;;;;;;;;;;;;;;26.06;52.67;100042.62;4492319;31;34101;-85
2023/06/25 09:43:06;;;;;;;;;;;;;;;26.64;52.01;100038.19;4494866;31;33223;-83
2023/06/25 09:45:34;;;;;;;;;;;;;;;27.16;48.10;100031.91;4478409;31;34072;-84
2023/06/25 09:48:01;;;;;;;;;;;;;;;27.59;45.93;100031.06;4473741;31;34185;-83
2023/06/25 09:50:35;;;;;;;;;;;;;;;26.94;48.12;100023.44;4485222;31;34524;-83
2023/06/25 09:53:05;;;;;;;;;;;;;;;27.37;45.20;100029.75;4487037;31;34068;-82
2023/06/25 09:55:33;;;;;;;;;;;;;;;27.47;45.97;100020.69;4480942;31;33574;-84
2023/06/25 09:58:00;;;;;;;;;;;;;;;27.77;44.02;100024.44;4470376;31;34606;-83
2023/06/25 10:00:28;;;;;;;;;;;;;;;27.65;45.40;100022.06;4490539;31;33107;-83
2023/06/25 10:02:55;;;;;;;;;;;;;;;28.20;43.82;100019.94;4488082;31;33559;-83
2023/06/25 10:05:23;;;;;;;;;;;;;;;27.92;46.18;100015.28;4474038;31;34199;-83
2023/06/25 10:07:51;;;;;;;;;;;;;;;28.36;45.17;100010.66;4475321;32;34004;-83
2023/06/25 10:10:22;;;;;;;;;;;;;;;28.02;44.30;100008.81;4488197;31;35164;-84
2023/06/25 10:12:49;;;;;;;;;;;;;;;27.29;46.40;100010.41;4487285;31;34016;-84
2023/06/25 10:15:29;;;;;;;;;;;;;;;27.84;44.95;100003.91;4491493;31;33816;-83
2023/06/25 10:17:58;;;;;;;;;;;;;;;27.94;45.56;100005.47;4488371;31;34155;-83
2023/06/25 10:20:27;;;;;;;;;;;;;;;28.43;44.87;100009.59;4490479;31;34278;-84
2023/06/25 10:23:20;;;;;;;;;;;;;;;28.46;44.45;100002.44;4487709;31;33061;-83
2023/06/25 10:26:11;;;;;;;;;;;;;;;28.36;43.77;100002.69;4472509;31;32541;-84
2023/06/25 10:28:49;;;;;;;;;;;;;;;27.90;44.29;100002.91;4431427;31;34895;-85
2023/06/25 10:31:20;;;;;;;;;;;;;;;28.29;43.54;100009.06;4460503;32;33476;-84
2023/06/25 10:33:47;;;;;;;;;;;;;;;28.15;43.72;100004.06;4478837;31;32456;-84
2023/06/25 10:36:15;;;;;;;;;;;;;;;27.76;45.37;99995.22;4486998;31;34213;-85
2023/06/25 10:38:42;;;;;;;;;;;;;;;28.18;44.81;99992.47;4485069;31;34375;-87
2023/06/25 10:41:10;;;;;;;;;;;;;;;28.65;42.29;100003.75;4489312;31;33530;-83
2023/06/25 10:43:37;;;;;;;;;;;;;;;27.58;44.62;99989.41;4492058;31;33562;-83
2023/06/25 10:46:05;;;;;;;;;;;;;;;27.34;45.43;99989.94;4497604;31;34806;-82
2023/06/25 10:48:32;;;;;;;;;;;;;;;27.82;46.09;99995.06;4487700;31;33522;-83
2023/06/25 10:50:59;;;;;;;;;;;;;;;27.57;45.35;99995.63;4493070;31;33747;-83
2023/06/25 10:53:26;;;;;;;;;;;;;;;28.33;43.12;99992.09;4493132;31;32970;-82
2023/06/25 10:55:54;;;;;;;;;;;;;;;27.76;44.00;99995.22;4485657;32;34231;-83
2023/06/25 10:58:23;;;;;;;;;;;;;;;28.18;42.31;99990.69;4493465;31;34132;-84
2023/06/25 11:00:54;;;;;;;;;;;;;;;28.26;43.15;99989.59;4499832;31;34941;-85
2023/06/25 11:03:24;;;;;;;;;;;;;;;27.94;43.77;99988.63;4488505;31;33378;-83
2023/06/25 11:05:52;;;;;;;;;;;;;;;28.51;41.11;99997.84;4489031;31;34224;-84
2023/06/25 11:08:23;;;;;;;;;;;;;;;28.64;42.09;99996.66;4495270;31;34211;-84
2023/06/25 11:10:50;;;;;;;;;;;;;;;27.79;42.99;99989.81;4484415;31;35003;-83
2023/06/25 11:13:18;;;;;;;;;;;;;;;27.65;43.44;99983.00;4488735;31;33125;-84
2023/06/25 11:15:46;;;;;;;;;;;;;;;27.65;42.67;99982.16;4486865;31;34277;-84
2023/06/25 11:18:13;;;;;;;;;;;;;;;27.58;43.12;99984.09;4485924;32;34782;-84
2023/06/25 11:20:42;;;;;;;;;;;;;;;28.16;41.06;99978.31;4492153;31;34567;-85
2023/06/25 11:23:12;;;;;;;;;;;;;;;28.19;41.33;99972.91;4475502;32;34161;-84
2023/06/25 11:25:39;;;;;;;;;;;;;;;28.59;41.20;99972.81;4473332;31;33898;-84
2023/06/25 11:28:08;;;;;;;;;;;;;;;29.21;40.07;99964.00;4490468;31;34692;-81
2023/06/25 11:30:36;;;;;;;;;;;;;;;29.34;39.63;99960.94;4483923;32;33425;-83
2023/06/25 11:33:09;;;;;;;;;;;;;;;29.05;40.15;99949.31;4491879;31;33411;-84
2023/06/25 11:35:37;;;;;;;;;;;;;;;29.57;40.87;99953.13;4471937;31;33798;-82
2023/06/25 11:38:05;;;;;;;;;;;;;;;30.22;38.37;99961.75;4486955;31;33812;-84
2023/06/25 11:40:34;;;;;;;;;;;;;;;29.68;38.42;99949.25;4477307;31;34245;-83
2023/06/25 11:43:01;;;;;;;;;;;;;;;29.46;38.66;99955.25;4493781;31;33203;-83
2023/06/25 11:45:42;;;;;;;;;;;;;;;29.52;38.29;99949.72;4483653;31;34939;-85
2023/06/25 11:48:14;;;;;;;;;;;;;;;29.89;38.16;99945.91;4485656;32;34801;-85
2023/06/25 11:50:42;;;;;;;;;;;;;;;29.21;39.45;99945.31;4492264;31;33784;-84
2023/06/25 11:53:10;;;;;;;;;;;;;;;30.08;36.94;99948.88;4485414;31;33440;-84
2023/06/25 11:55:37;;;;;;;;;;;;;;;29.19;38.82;99940.97;4481553;32;33923;-84
2023/06/25 11:58:05;;;;;;;;;;;;;;;29.68;37.30;99944.78;4487168;31;34239;-85
2023/06/25 12:00:33;;;;;;;;;;;;;;;30.01;37.86;99941.09;4494272;31;33976;-84
2023/06/25 12:03:00;;;;;;;;;;;;;;;29.11;42.80;99942.91;4489668;31;33396;-84
2023/06/25 12:05:28;;;;;;;;;;;;;;;28.88;41.61;99935.56;4484342;31;34221;-83
2023/06/25 12:07:55;;;;;;;;;;;;;;;28.64;41.37;99943.34;4486333;31;34965;-85
2023/06/25 12:10:23;;;;;;;;;;;;;;;28.44;42.94;99941.19;4485279;31;33969;-84
2023/06/25 12:12:54;;;;;;;;;;;;;;;28.43;41.55;99944.75;4478307;31;32790;-83
2023/06/25 12:15:22;;;;;;;;;;;;;;;28.49;43.93;99938.41;4492497;31;34119;-84
2023/06/25 12:17:52;;;;;;;;;;;;;;;26.68;46.20;99944.22;4485273;31;33195;-84
2023/06/25 12:20:19;;;;;;;;;;;;;;;27.72;45.33;99945.59;4489621;31;33959;-83
2023/06/25 12:22:47;;;;;;;;;;;;;;;27.72;44.48;99940.28;4490008;31;33075;-83
2023/06/25 12:25:18;;;;;;;;;;;;;;;28.01;45.11;99942.31;4459233;31;32185;-85
2023/06/25 12:27:45;;;;;;;;;;;;;;;28.28;44.55;99937.16;4484418;31;34660;-85
2023/06/25 12:30:13;;;;;;;;;;;;;;;28.30;44.59;99930.91;4488502;31;34508;-84
2023/06/25 12:32:41;;;;;;;;;;;;;;;28.43;44.40;99939.44;4491242;31;32929;-84
2023/06/25 12:35:10;;;;;;;;;;;;;;;27.99;45.61;99938.78;4489699;31;34048;-83
2023/06/25 12:37:41;;;;;;;;;;;;;;;28.34;45.02;99935.25;4481123;31;34155;-84
2023/06/25 12:40:09;;;;;;;;;;;;;;;28.57;43.14;99928.47;4484026;31;33962;-84
2023/06/25 12:42:36;;;;;;;;;;;;;;;28.69;44.76;99936.12;4487718;31;34007;-84